Time;durP1;ratioP1;P1;durP2;ratioP2;P2;SDS_P1;SDS_P2;PMS_P1;PMS_P2;Temp;Humidity;BMP_temperature;BMP_pressure;BME280_temperature;BME280_humidity;BME280_pressure;Samples;Min_cycle;Max_cycle;Signal;HPM_P1;HPM_P2
2022/05/28 00:00:34;;;;;;;;;;;;;;;10.89;94.93;99643.73;1644873;86;21485;-69
2022/05/28 00:03:02;;;;;;;0.83;0.50;;;;;;;10.88;94.54;99648.75;1628179;86;20424;-74
2022/05/28 00:05:29;;;;;;;0.70;0.40;;;;;;;10.83;94.47;99660.05;1630864;86;21080;-71
2022/05/28 00:07:55;;;;;;;0.40;0.37;;;;;;;10.82;94.36;99681.57;1633425;87;21516;-69
2022/05/28 00:10:22;;;;;;;1.10;0.30;;;;;;;10.84;94.61;99694.18;1635006;86;21028;-69
2022/05/28 00:12:50;;;;;;;0.53;0.30;;;;;;;10.85;94.79;99683.31;1670939;85;21514;-68
2022/05/28 00:15:17;;;;;;;1.42;0.50;;;;;;;10.86;94.46;99682.27;1685760;84;21463;-68
2022/05/28 00:17:45;;;;;;;0.37;0.20;;;;;;;10.88;94.17;99674.08;1685363;84;21273;-68
2022/05/28 00:20:12;;;;;;;3.90;0.33;;;;;;;10.86;94.21;99676.13;1683234;85;20974;-67
2022/05/28 00:22:43;;;;;;;0.83;0.47;;;;;;;10.86;94.08;99657.47;1684612;84;21090;-69
2022/05/28 00:25:13;;;;;;;0.40;0.40;;;;;;;10.87;93.91;99652.45;1670450;84;21066;-71
2022/05/28 00:27:41;;;;;;;0.40;0.30;;;;;;;10.87;93.55;99637.27;1684513;84;21030;-69
2022/05/28 00:30:12;;;;;;;1.30;0.68;;;;;;;10.88;93.33;99615.42;1680444;84;21083;-70
2022/05/28 00:32:38;;;;;;;0.60;0.30;;;;;;;10.89;93.27;99606.41;1684278;84;20975;-68
2022/05/28 00:35:07;;;;;;;1.47;0.50;;;;;;;10.88;93.40;99616.23;1683649;84;21554;-69
2022/05/28 00:37:33;;;;;;;0.57;0.57;;;;;;;10.86;93.10;99626.80;1678041;83;21006;-76
2022/05/28 00:40:05;;;;;;;;;;;;;;;10.87;93.10;99612.47;1666064;84;20987;-68
2022/05/28 00:42:31;;;;;;;0.50;0.30;;;;;;;10.85;93.24;99595.34;1662858;84;20114;-69
2022/05/28 00:44:57;;;;;;;3.33;0.75;;;;;;;10.82;93.55;99624.25;1660996;84;21133;-69
2022/05/28 00:47:25;;;;;;;0.95;0.62;;;;;;;10.83;93.51;99636.55;1690558;84;21055;-69
2022/05/28 00:49:52;;;;;;;1.03;0.50;;;;;;;10.83;93.63;99651.20;1684147;84;21507;-69
2022/05/28 00:52:21;;;;;;;0.93;0.57;;;;;;;10.85;93.35;99657.15;1683583;84;21760;-70
2022/05/28 00:54:48;;;;;;;0.83;0.83;;;;;;;10.83;93.12;99649.87;1681370;84;21463;-70
2022/05/28 00:57:17;;;;;;;2.50;0.73;;;;;;;10.85;93.24;99641.15;1687140;84;21074;-69
2022/05/28 00:59:45;;;;;;;0.70;0.50;;;;;;;10.85;93.31;99631.81;1693907;82;21083;-69
2022/05/28 01:02:36;;;;;;;1.27;0.60;;;;;;;10.84;93.46;99630.20;1712867;82;21467;-69
2022/05/28 01:05:11;;;;;;;2.53;0.60;;;;;;;10.84;93.62;99636.86;1699056;84;21562;-69
2022/05/28 01:08:17;;;;;;;0.50;0.50;;;;;;;10.82;93.99;99642.39;1686160;82;22196;-69
2022/05/28 01:11:04;;;;;;;0.40;0.40;;;;;;;10.83;94.07;99612.55;1686792;82;21060;-68
2022/05/28 01:13:50;;;;;;;0.57;0.57;;;;;;;10.81;93.68;99610.61;1691042;84;21107;-68
2022/05/28 01:16:37;;;;;;;0.60;0.57;;;;;;;10.80;93.64;99645.78;1711688;82;21072;-69
2022/05/28 01:19:12;;;;;;;1.35;0.88;;;;;;;10.80;94.04;99643.64;1701060;82;21084;-70
2022/05/28 01:22:06;;;;;;;1.73;0.73;;;;;;;10.78;93.47;99649.69;1708664;82;20991;-69
2022/05/28 01:24:50;;;;;;;1.23;1.13;;;;;;;10.77;93.38;99642.19;1694787;82;21047;-69
2022/05/28 01:27:31;;;;;;;2.87;0.70;;;;;;;10.74;93.24;99646.62;1701685;84;21063;-69
2022/05/28 01:30:02;;;;;;;1.57;0.93;;;;;;;10.74;93.39;99647.11;1705056;82;21093;-70
2022/05/28 01:32:31;;;;;;;1.80;1.20;;;;;;;10.75;93.58;99640.77;1676699;84;21046;-71
2022/05/28 01:34:59;;;;;;;0.80;0.80;;;;;;;10.78;93.73;99651.84;1711807;82;21011;-70
2022/05/28 01:37:26;;;;;;;0.77;0.67;;;;;;;10.82;93.90;99642.39;1711696;84;21035;-68
2022/05/28 01:39:55;;;;;;;0.80;0.80;;;;;;;10.83;93.34;99621.88;1695516;84;21107;-69
2022/05/28 01:42:25;;;;;;;0.90;0.80;;;;;;;10.83;92.74;99631.20;1713041;84;21086;-73
2022/05/28 01:44:54;;;;;;;1.23;1.00;;;;;;;10.83;93.00;99624.05;1687698;84;21633;-67
2022/05/28 01:47:23;;;;;;;2.10;0.93;;;;;;;10.86;93.32;99630.80;1694811;82;20971;-69
2022/05/28 01:49:51;;;;;;;1.50;0.67;;;;;;;10.87;93.36;99638.60;1712330;84;21551;-68
2022/05/28 01:52:20;;;;;;;1.70;1.20;;;;;;;10.89;93.62;99650.40;1712640;82;21063;-69
2022/05/28 01:54:49;;;;;;;0.80;0.80;;;;;;;10.89;92.77;99655.73;1712391;84;21030;-70
2022/05/28 01:57:16;;;;;;;1.30;1.30;;;;;;;10.87;92.59;99640.45;1670897;82;21094;-67
2022/05/28 01:59:43;;;;;;;1.13;0.83;;;;;;;10.89;92.80;99637.07;1662752;85;21161;-68
2022/05/28 02:02:13;;;;;;;0.77;0.77;;;;;;;10.90;92.90;99648.84;1668488;84;20990;-71
2022/05/28 02:04:43;;;;;;;1.20;1.20;;;;;;;10.94;92.62;99657.23;1684813;84;21030;-69
2022/05/28 02:07:10;;;;;;;0.80;0.80;;;;;;;10.97;92.55;99666.17;1684535;84;21503;-69
2022/05/28 02:09:45;;;;;;;2.10;1.90;;;;;;;10.99;92.62;99645.97;1660866;85;21099;-70
2022/05/28 02:12:37;;;;;;;2.70;1.40;;;;;;;10.99;92.72;99630.78;1690538;82;21038;-69
2022/05/28 02:15:30;;;;;;;2.57;1.83;;;;;;;10.99;92.15;99632.64;1704119;82;21080;-70
2022/05/28 02:18:07;;;;;;;1.35;1.20;;;;;;;10.97;92.42;99626.17;1700764;82;20976;-70
2022/05/28 02:21:12;;;;;;;1.57;1.00;;;;;;;10.97;92.55;99622.17;1710235;82;21543;-68
2022/05/28 02:24:05;;;;;;;1.37;1.27;;;;;;;10.98;92.79;99625.65;1694803;82;21046;-69
2022/05/28 02:26:46;;;;;;;0.80;0.63;;;;;;;10.96;92.36;99621.85;1699844;84;21034;-69
2022/05/28 02:29:13;;;;;;;6.43;2.03;;;;;;;10.98;92.26;99621.16;1712395;82;21047;-71
2022/05/28 02:31:46;;;;;;;1.93;1.80;;;;;;;11.02;92.29;99625.53;1713348;82;21007;-68
2022/05/28 02:34:15;;;;;;;0.60;0.60;;;;;;;11.04;92.17;99624.31;1687226;84;21082;-68
2022/05/28 02:36:42;;;;;;;1.32;1.30;;;;;;;11.04;92.11;99630.98;1684970;84;21007;-68
2022/05/28 02:39:09;;;;;;;1.20;1.10;;;;;;;11.05;92.08;99649.13;1684765;85;21550;-70
2022/05/28 02:41:38;;;;;;;1.72;1.02;;;;;;;11.06;92.14;99654.27;1683269;84;21589;-68
2022/05/28 02:44:06;;;;;;;1.17;1.10;;;;;;;11.05;91.29;99663.80;1684123;84;21018;-68
2022/05/28 02:46:32;;;;;;;1.67;0.90;;;;;;;11.04;91.46;99656.84;1684537;85;21139;-69
2022/05/28 02:48:58;;;;;;;;;;;;;;;11.02;91.48;99655.71;1686846;85;21026;-72
2022/05/28 02:51:25;;;;;;;1.93;1.70;;;;;;;11.01;90.96;99644.72;1666414;84;20163;-68
2022/05/28 02:53:54;;;;;;;1.40;1.30;;;;;;;10.97;91.46;99647.50;1684679;84;21687;-69
2022/05/28 02:56:21;;;;;;;2.20;1.37;;;;;;;10.95;91.28;99649.56;1684170;84;21087;-69
2022/05/28 02:58:47;;;;;;;3.17;1.30;;;;;;;10.96;91.52;99647.70;1684133;84;21023;-71
2022/05/28 03:01:33;;;;;;;2.08;1.37;;;;;;;10.99;91.45;99648.11;1684725;84;21069;-67
2022/05/28 03:04:01;;;;;;;1.63;1.43;;;;;;;11.00;90.98;99647.59;1684976;84;21129;-68
2022/05/28 03:07:45;;;;;;;1.60;1.50;;;;;;;11.04;91.26;99649.66;1802455;79;22183;-74
2022/05/28 03:10:12;;;;;;;;;;;;;;;11.03;91.09;99651.19;1762146;80;21033;-71
2022/05/28 03:12:39;;;;;;;1.50;1.37;;;;;;;11.06;91.03;99651.59;1705873;82;20153;-68
2022/05/28 03:15:08;;;;;;;2.13;1.33;;;;;;;11.04;90.09;99644.32;1673193;84;21073;-69
2022/05/28 03:17:34;;;;;;;3.57;1.20;;;;;;;11.06;90.12;99643.59;1674138;84;21028;-71
2022/05/28 03:20:02;;;;;;;1.37;1.07;;;;;;;11.09;90.40;99649.86;1650749;85;21545;-70
2022/05/28 03:22:29;;;;;;;1.40;1.30;;;;;;;11.13;89.92;99645.42;1645770;85;22227;-71
2022/05/28 03:24:56;;;;;;;2.50;1.00;;;;;;;11.15;89.20;99658.03;1655229;85;21125;-72
2022/05/28 03:27:23;;;;;;;2.00;1.17;;;;;;;11.16;89.55;99667.16;1655895;85;21513;-70
2022/05/28 03:29:50;;;;;;;1.77;1.62;;;;;;;11.23;89.46;99664.49;1661432;85;21552;-69
2022/05/28 03:32:16;;;;;;;2.00;1.90;;;;;;;11.33;88.94;99676.88;1656864;85;20990;-70
2022/05/28 03:34:42;;;;;;;2.72;1.37;;;;;;;11.46;88.59;99676.02;1637911;85;21112;-69
2022/05/28 03:37:08;;;;;;;4.60;1.65;;;;;;;11.46;88.59;99676.02;1625583;87;21088;-71
2022/05/28 03:39:34;;;;;;;2.08;1.87;;;;;;;11.47;87.49;99678.48;1620343;87;21195;-72
2022/05/28 03:42:01;;;;;;;1.22;1.22;;;;;;;11.47;87.51;99673.64;1629257;87;21038;-69
2022/05/28 03:44:27;;;;;;;1.75;1.65;;;;;;;11.50;88.17;99675.38;1629056;86;21016;-73
2022/05/28 03:46:54;;;;;;;2.60;1.70;;;;;;;11.55;88.18;99668.09;1619095;86;21076;-69
2022/05/28 03:49:30;;;;;;;2.35;1.70;;;;;;;11.61;87.67;99674.43;1636096;86;21058;-70
2022/05/28 03:51:57;;;;;;;1.83;1.60;;;;;;;11.65;87.71;99669.78;1629529;86;21045;-70
2022/05/28 03:54:25;;;;;;;2.05;1.40;;;;;;;11.72;87.37;99683.11;1628616;86;21073;-69
2022/05/28 03:57:05;;;;;;;1.70;1.70;;;;;;;11.73;85.35;99683.41;1666113;84;21385;-68
2022/05/28 03:59:34;;;;;;;1.52;1.42;;;;;;;11.72;85.85;99690.31;1650301;85;20998;-70
2022/05/28 04:02:03;;;;;;;4.30;1.50;;;;;;;11.68;85.67;99684.58;1645503;85;21072;-69
2022/05/28 04:04:30;;;;;;;1.30;1.20;;;;;;;11.68;86.44;99691.25;1650144;85;21084;-69
2022/05/28 04:07:00;;;;;;;1.35;1.25;;;;;;;11.75;85.97;99688.01;1627367;88;21137;-69
2022/05/28 04:09:27;;;;;;;2.98;1.35;;;;;;;11.80;85.89;99688.20;1633784;86;21065;-74
2022/05/28 04:11:54;;;;;;;1.30;1.30;;;;;;;11.84;84.13;99693.94;1617732;86;21555;-70
2022/05/28 04:14:20;;;;;;;4.47;1.40;;;;;;;11.90;84.32;99692.30;1641661;85;21039;-69
2022/05/28 04:16:46;;;;;;;2.85;1.50;;;;;;;11.90;83.73;99706.98;1649724;85;21074;-69
2022/05/28 04:19:13;;;;;;;;;;;;;;;11.90;84.08;99696.31;1641757;86;21155;-74
2022/05/28 04:21:39;;;;;;;2.52;1.10;;;;;;;11.96;84.19;99697.63;1634881;85;20155;-69
2022/05/28 04:24:06;;;;;;;1.25;1.10;;;;;;;12.00;84.38;99700.69;1642179;85;21067;-74
2022/05/28 04:26:34;;;;;;;1.82;1.70;;;;;;;12.04;82.76;99691.22;1635818;85;21179;-70
2022/05/28 04:29:00;;;;;;;4.00;1.65;;;;;;;12.04;82.68;99703.23;1645713;85;21027;-70
2022/05/28 04:31:26;;;;;;;2.00;1.45;;;;;;;12.14;82.94;99699.57;1644896;85;21007;-70
2022/05/28 04:33:53;;;;;;;2.33;1.80;;;;;;;12.43;83.01;99701.34;1651638;85;21146;-70
2022/05/28 04:36:20;;;;;;;1.52;1.50;;;;;;;12.70;81.02;99701.98;1646443;85;21004;-70
2022/05/28 04:38:47;;;;;;;1.25;1.12;;;;;;;12.79;79.64;99699.34;1628461;87;21083;-69
2022/05/28 04:41:13;;;;;;;1.30;1.20;;;;;;;12.79;79.77;99707.37;1621346;87;21086;-69
2022/05/28 04:43:40;;;;;;;2.72;1.17;;;;;;;12.85;80.27;99709.16;1627383;87;21123;-70
2022/05/28 04:46:06;;;;;;;2.25;1.62;;;;;;;12.92;79.36;99713.63;1639817;85;21631;-70
2022/05/28 04:48:32;;;;;;;;;;;;;;;12.95;78.16;99710.52;1623831;86;21030;-70
2022/05/28 04:50:59;;;;;;;1.55;1.45;;;;;;;12.94;78.62;99715.06;1649665;85;20472;-71
2022/05/28 04:53:26;;;;;;;1.27;1.10;;;;;;;12.97;79.01;99715.13;1643319;85;21028;-71
2022/05/28 04:55:52;;;;;;;3.72;1.70;;;;;;;13.01;76.78;99709.11;1656216;85;21041;-70
2022/05/28 04:58:18;;;;;;;;;;;;;;;12.94;76.52;99704.86;1663995;85;21068;-72
2022/05/28 05:00:47;;;;;;;1.20;1.10;;;;;;;12.83;77.58;99704.55;1670039;84;20139;-75
2022/05/28 05:03:14;;;;;;;1.47;1.37;;;;;;;12.75;78.15;99699.98;1675506;84;21039;-69
2022/05/28 05:05:42;;;;;;;2.35;2.17;;;;;;;12.93;77.64;99715.28;1673046;85;21068;-73
2022/05/28 05:08:09;;;;;;;1.72;1.62;;;;;;;13.09;77.89;99724.09;1652890;86;21021;-74
2022/05/28 05:10:36;;;;;;;1.32;1.22;;;;;;;13.29;76.66;99720.41;1665204;85;21025;-73
2022/05/28 05:13:02;;;;;;;;;;;;;;;13.40;76.71;99719.17;1678474;85;21155;-71
2022/05/28 05:15:29;;;;;;;1.52;1.42;;;;;;;13.53;76.28;99718.22;1677733;85;20273;-70
2022/05/28 05:17:55;;;;;;;2.52;1.30;;;;;;;13.65;75.50;99731.67;1661794;85;21079;-71
2022/05/28 05:20:21;;;;;;;;;;;;;;;13.83;74.63;99719.63;1677048;85;21667;-72
2022/05/28 05:22:48;;;;;;;1.60;1.50;;;;;;;14.15;73.81;99718.09;1668539;85;20127;-71
2022/05/28 05:25:14;;;;;;;1.50;1.07;;;;;;;14.39;72.05;99713.63;1649532;85;21022;-70
2022/05/28 05:27:41;;;;;;;1.37;1.30;;;;;;;14.83;71.23;99714.74;1621456;87;21086;-69
2022/05/28 05:30:10;;;;;;;2.30;1.72;;;;;;;15.15;68.73;99714.41;1649503;86;21080;-72
2022/05/28 05:32:37;;;;;;;1.85;1.20;;;;;;;15.35;68.81;99709.50;1621747;87;21218;-70
2022/05/28 05:35:05;;;;;;;2.95;2.55;;;;;;;15.45;66.17;99711.59;1649997;86;21061;-73
2022/05/28 05:37:31;;;;;;;4.08;1.22;;;;;;;15.51;65.51;99708.48;1650484;85;21134;-70
2022/05/28 05:39:57;;;;;;;4.08;1.72;;;;;;;15.54;65.41;99713.40;1621146;87;21107;-70
2022/05/28 05:42:24;;;;;;;1.10;1.00;;;;;;;15.47;65.47;99718.88;1634847;87;21076;-70
2022/05/28 05:44:50;;;;;;;4.55;1.30;;;;;;;15.43;64.86;99723.09;1636203;86;21078;-70
2022/05/28 05:47:16;;;;;;;2.05;1.90;;;;;;;15.56;65.42;99718.00;1672148;83;21570;-71
2022/05/28 05:49:42;;;;;;;1.30;0.80;;;;;;;15.85;64.25;99718.89;1669981;83;21107;-73
2022/05/28 05:52:09;;;;;;;2.22;1.00;;;;;;;16.21;61.84;99716.89;1685391;83;21644;-73
2022/05/28 05:54:36;;;;;;;4.00;0.95;;;;;;;16.39;62.86;99719.08;1666133;83;21640;-72
2022/05/28 05:57:04;;;;;;;3.02;1.52;;;;;;;16.48;60.88;99723.84;1661894;85;21017;-71
2022/05/28 05:59:31;;;;;;;2.60;1.35;;;;;;;16.30;61.10;99726.73;1604618;87;21160;-71
2022/05/28 06:01:57;;;;;;;1.82;1.57;;;;;;;16.02;61.50;99735.08;1650588;86;21093;-71
2022/05/28 06:04:23;;;;;;;1.20;1.10;;;;;;;15.82;62.99;99726.61;1643966;85;21120;-71
2022/05/28 06:06:50;;;;;;;1.30;1.12;;;;;;;15.84;63.89;99727.19;1610393;87;21612;-71
2022/05/28 06:09:16;;;;;;;1.80;1.35;;;;;;;15.85;62.33;99727.48;1662076;84;21513;-71
2022/05/28 06:11:42;;;;;;;1.10;1.10;;;;;;;15.86;63.37;99731.80;1672437;83;21140;-75
2022/05/28 06:14:08;;;;;;;;;;;;;;;15.86;63.35;99721.04;1603144;88;21087;-70
2022/05/28 06:16:35;;;;;;;2.05;1.00;;;;;;;15.88;63.22;99718.42;1642966;86;20108;-70
2022/05/28 06:19:02;;;;;;;1.72;1.62;;;;;;;15.80;64.05;99721.47;1633041;86;21576;-70
2022/05/28 06:21:28;;;;;;;0.98;0.98;;;;;;;15.80;63.64;99721.47;1619249;87;21115;-69
2022/05/28 06:23:55;;;;;;;1.00;1.00;;;;;;;15.76;63.16;99718.47;1617222;86;21008;-73
2022/05/28 06:26:21;;;;;;;1.17;1.17;;;;;;;15.80;64.38;99724.69;1597037;87;21169;-71
2022/05/28 06:28:47;;;;;;;1.50;1.10;;;;;;;15.89;63.33;99723.27;1620637;87;20993;-72
2022/05/28 06:31:14;;;;;;;1.00;0.88;;;;;;;15.79;61.81;99718.50;1617451;87;21091;-72
2022/05/28 06:33:41;;;;;;;0.70;0.70;;;;;;;15.73;61.57;99724.80;1608471;87;21073;-70
2022/05/28 06:36:10;;;;;;;2.55;0.95;;;;;;;15.66;62.31;99717.40;1606636;87;21069;-71
2022/05/28 06:38:36;;;;;;;1.02;1.00;;;;;;;15.61;62.24;99715.94;1614787;87;21102;-71
2022/05/28 06:41:03;;;;;;;1.47;1.40;;;;;;;15.66;63.54;99720.09;1612970;87;21565;-71
2022/05/28 06:43:31;;;;;;;1.17;1.05;;;;;;;15.78;63.96;99721.42;1615109;87;21050;-71
2022/05/28 06:46:06;;;;;;;4.10;1.75;;;;;;;15.95;64.24;99724.99;1611058;88;21034;-70
2022/05/28 06:48:35;;;;;;;2.77;1.32;;;;;;;16.03;63.83;99721.94;1599073;87;21079;-74
2022/05/28 06:51:04;;;;;;;0.72;0.72;;;;;;;16.33;61.06;99727.59;1612434;87;21075;-73
2022/05/28 06:53:35;;;;;;;4.78;1.05;;;;;;;16.42;61.02;99722.64;1612439;87;21582;-71
2022/05/28 06:56:04;;;;;;;1.55;0.78;;;;;;;16.79;61.00;99631.52;1612726;87;21061;-74
2022/05/28 06:58:30;;;;;;;1.32;1.10;;;;;;;17.74;57.83;99719.54;1663271;84;21519;-70
2022/05/28 07:00:57;;;;;;;1.47;0.93;;;;;;;17.74;57.83;99719.54;1660355;84;21540;-70
2022/05/28 07:03:26;;;;;;;1.27;0.78;;;;;;;18.09;55.72;99718.64;1665575;84;21016;-72
2022/05/28 07:05:54;;;;;;;1.37;0.88;;;;;;;18.23;55.00;99729.03;1660973;84;21119;-72
2022/05/28 07:08:21;;;;;;;4.30;1.50;;;;;;;18.24;53.36;99719.88;1669503;84;21136;-71
2022/05/28 07:10:51;;;;;;;2.02;1.00;;;;;;;18.15;53.90;99720.86;1661663;84;21016;-71
2022/05/28 07:13:20;;;;;;;1.52;1.42;;;;;;;18.10;53.40;99720.80;1595271;88;21105;-70
2022/05/28 07:15:48;;;;;;;0.68;0.60;;;;;;;18.16;53.64;99717.62;1657775;85;21171;-71
2022/05/28 07:18:16;;;;;;;2.85;0.85;;;;;;;18.25;52.64;99719.63;1648922;85;21090;-71
2022/05/28 07:20:44;;;;;;;3.02;0.85;;;;;;;18.37;52.45;99718.67;1649784;85;21539;-72
2022/05/28 07:23:16;;;;;;;4.08;0.80;;;;;;;18.44;51.48;99717.91;1665032;85;21020;-71
2022/05/28 07:25:44;;;;;;;3.05;0.93;;;;;;;18.38;51.34;99730.53;1636502;85;21104;-71
2022/05/28 07:28:31;;;;;;;2.12;1.07;;;;;;;18.11;51.32;99731.07;1634336;85;21079;-72
2022/05/28 07:31:03;;;;;;;4.45;0.90;;;;;;;17.91;52.40;99725.70;1651036;85;21123;-70
2022/05/28 07:33:33;;;;;;;8.15;1.15;;;;;;;17.83;52.24;99728.82;1635285;84;21074;-71
2022/05/28 07:36:01;;;;;;;1.67;0.60;;;;;;;17.81;53.54;99725.02;1680418;84;21062;-72
2022/05/28 07:38:31;;;;;;;1.85;0.35;;;;;;;17.85;50.36;99722.67;1681036;84;21045;-70
2022/05/28 07:41:02;;;;;;;2.42;0.57;;;;;;;17.64;50.76;99715.65;1677864;84;21025;-81
2022/05/28 07:43:29;;;;;;;3.15;0.65;;;;;;;17.60;51.00;99721.27;1675406;84;21069;-72
2022/05/28 07:45:55;;;;;;;5.25;0.80;;;;;;;17.58;51.49;99715.85;1671032;84;21137;-72
2022/05/28 07:48:22;;;;;;;;;;;;;;;17.65;51.33;99710.56;1667518;85;21120;-74
2022/05/28 07:50:48;;;;;;;5.10;1.10;;;;;;;17.76;52.06;99718.22;1670838;84;20123;-72
2022/05/28 07:53:14;;;;;;;;;;;;;;;17.85;51.16;99705.16;1670876;84;20974;-70
2022/05/28 07:55:42;;;;;;;2.25;0.40;;;;;;;17.88;50.19;99711.40;1675809;84;20206;-69
2022/05/28 07:58:15;;;;;;;2.42;0.85;;;;;;;17.81;50.11;99710.73;1627315;86;21107;-77
2022/05/28 08:00:47;;;;;;;2.65;0.50;;;;;;;17.83;48.98;99712.64;1672960;84;21026;-70
2022/05/28 08:03:16;;;;;;;3.12;0.45;;;;;;;17.85;49.50;99711.89;1661921;84;20986;-69
2022/05/28 08:05:48;;;;;;;1.05;0.55;;;;;;;17.94;48.88;99713.08;1656384;84;21066;-72
2022/05/28 08:08:15;;;;;;;0.90;0.40;;;;;;;17.98;48.45;99724.98;1658191;84;21033;-70
2022/05/28 08:10:43;;;;;;;1.32;0.40;;;;;;;18.03;48.78;99715.61;1658424;84;21108;-71
2022/05/28 08:13:15;;;;;;;3.35;0.62;;;;;;;18.09;47.37;99717.29;1677649;84;21019;-71
2022/05/28 08:15:44;;;;;;;0.98;0.50;;;;;;;18.15;47.87;99715.47;1686347;83;20988;-72
2022/05/28 08:18:14;;;;;;;1.77;0.50;;;;;;;18.24;47.45;99721.23;1698226;83;21060;-73
2022/05/28 08:23:26;;;;;;;5.70;0.60;;;;;;;18.39;47.37;99721.38;1688006;83;21107;-73
2022/05/28 08:25:53;;;;;;;1.40;0.42;;;;;;;18.44;47.77;99721.95;1697943;83;21100;-73
2022/05/28 08:28:21;;;;;;;2.12;0.40;;;;;;;18.42;47.29;99718.69;1691028;83;21063;-72
2022/05/28 08:30:47;;;;;;;2.22;0.53;;;;;;;18.42;47.29;99722.23;1682371;83;21110;-74
2022/05/28 08:33:18;;;;;;;0.93;0.50;;;;;;;18.44;47.39;99724.14;1695927;83;21051;-76
2022/05/28 08:35:46;;;;;;;1.52;0.30;;;;;;;18.45;47.72;99729.80;1693151;83;20984;-70
2022/05/28 08:38:18;;;;;;;3.90;0.20;;;;;;;18.46;48.15;99728.73;1695913;83;21067;-74
2022/05/28 08:41:00;;;;;;;3.37;0.60;;;;;;;18.40;46.79;99727.07;1681370;84;20996;-72
2022/05/28 08:43:31;;;;;;;2.05;0.35;;;;;;;18.32;46.01;99727.51;1695457;83;21020;-71
2022/05/28 08:45:58;;;;;;;1.85;0.37;;;;;;;18.25;46.48;99726.89;1699570;83;21117;-72
2022/05/28 08:48:36;;;;;;;1.80;0.30;;;;;;;18.26;47.09;99725.83;1698661;83;21558;-71
2022/05/28 08:51:20;;;;;;;2.47;0.20;;;;;;;18.27;45.85;99723.40;1720223;82;21019;-74
2022/05/28 08:54:12;;;;;;;0.90;0.20;;;;;;;18.29;45.56;99728.03;1679215;83;21000;-76
2022/05/28 08:56:40;;;;;;;1.37;0.45;;;;;;;18.34;43.36;99719.16;1694823;83;21494;-71
2022/05/28 08:59:19;;;;;;;3.62;0.45;;;;;;;18.42;43.68;99724.09;1687059;83;21578;-73
2022/05/28 09:01:46;;;;;;;0.98;0.35;;;;;;;18.52;43.85;99723.40;1694480;83;20973;-72
2022/05/28 09:04:17;;;;;;;2.45;0.35;;;;;;;18.62;44.25;99720.78;1699404;83;21015;-74
2022/05/28 09:06:51;;;;;;;2.85;0.25;;;;;;;18.74;42.69;99721.95;1698140;83;20972;-71
2022/05/28 09:09:16;;;;;;;1.42;0.20;;;;;;;18.86;42.90;99713.19;1698845;83;21146;-75
2022/05/28 09:11:50;;;;;;;1.10;0.20;;;;;;;18.96;42.18;99716.49;1682374;83;21032;-73
2022/05/28 09:14:33;;;;;;;6.92;0.45;;;;;;;18.95;42.68;99722.44;1686008;83;21160;-71
2022/05/28 09:17:10;;;;;;;4.12;0.45;;;;;;;18.91;43.54;99717.28;1685020;83;21076;-70
2022/05/28 09:19:42;;;;;;;1.82;0.30;;;;;;;18.80;43.54;99716.38;1694992;83;21614;-73
2022/05/28 09:22:08;;;;;;;1.10;0.30;;;;;;;18.80;43.79;99716.38;1643485;85;21015;-71
2022/05/28 09:24:36;;;;;;;1.65;0.23;;;;;;;18.85;44.17;99715.08;1654882;86;21081;-74
2022/05/28 09:27:30;;;;;;;1.45;0.20;;;;;;;18.90;44.01;99710.78;1635115;86;21054;-72
2022/05/28 09:30:43;;;;;;;5.80;0.28;;;;;;;18.86;42.30;99712.64;1656104;86;21486;-73
2022/05/28 09:33:30;;;;;;;0.20;0.20;;;;;;;18.74;42.56;99710.64;1648144;86;21144;-75
2022/05/28 09:36:17;;;;;;;5.53;0.33;;;;;;;18.70;42.59;99712.74;1656465;86;21069;-72
2022/05/28 09:38:50;;;;;;;;;;;;;;;18.66;43.10;99704.34;1606559;87;21085;-72
2022/05/28 09:41:24;;;;;;;0.30;0.10;;;;;;;18.76;42.87;99696.86;1630901;86;20450;-73
2022/05/28 09:44:16;;;;;;;1.15;0.10;;;;;;;18.81;42.74;99704.49;1640808;85;21105;-72
2022/05/28 09:46:45;;;;;;;1.05;0.40;;;;;;;18.92;42.25;99693.78;1641270;85;21554;-72
2022/05/28 09:49:17;;;;;;;1.72;0.55;;;;;;;18.96;41.56;99694.89;1642894;86;21148;-73
2022/05/28 09:51:58;;;;;;;1.72;0.30;;;;;;;18.97;41.59;99698.69;1645187;85;21054;-78
2022/05/28 09:54:30;;;;;;;4.42;0.30;;;;;;;18.95;42.24;99701.34;1652320;86;21041;-72
2022/05/28 09:57:11;;;;;;;2.17;0.30;;;;;;;18.87;42.66;99698.59;1646205;85;21020;-71
2022/05/28 09:59:55;;;;;;;1.27;0.30;;;;;;;18.86;42.31;99692.39;1644483;86;21514;-71
2022/05/28 10:02:28;;;;;;;0.78;0.17;;;;;;;18.86;42.16;99695.09;1644488;86;21057;-72
2022/05/28 10:05:16;;;;;;;3.72;0.35;;;;;;;18.91;42.36;99688.09;1646367;85;21038;-71
2022/05/28 10:07:51;;;;;;;2.72;0.42;;;;;;;19.00;41.81;99687.34;1651711;85;21105;-81
2022/05/28 10:10:35;;;;;;;0.95;0.28;;;;;;;19.18;40.72;99671.27;1647607;85;21081;-71
2022/05/28 10:13:11;;;;;;;1.37;0.42;;;;;;;19.31;39.98;99669.16;1646259;85;21101;-72
2022/05/28 10:15:52;;;;;;;2.25;0.40;;;;;;;19.38;39.34;99680.03;1633439;86;21025;-76
2022/05/28 10:18:23;;;;;;;3.37;0.25;;;;;;;19.46;39.51;99676.02;1612061;87;21042;-72
2022/05/28 10:21:16;;;;;;;0.40;0.30;;;;;;;19.48;39.22;99677.91;1609350;87;21074;-76
2022/05/28 10:23:51;;;;;;;3.75;0.10;;;;;;;19.50;39.11;99668.19;1655343;86;21050;-72
2022/05/28 10:26:30;;;;;;;3.12;0.20;;;;;;;19.54;37.16;99676.05;1632338;86;21143;-72
2022/05/28 10:29:00;;;;;;;1.17;0.30;;;;;;;19.48;36.87;99671.67;1646803;85;21592;-73
2022/05/28 10:31:36;;;;;;;1.05;0.10;;;;;;;19.39;36.98;99680.83;1629868;87;21112;-71
2022/05/28 10:34:04;;;;;;;1.40;0.30;;;;;;;19.44;37.09;99667.36;1657590;85;21577;-71
2022/05/28 10:36:34;;;;;;;2.90;0.20;;;;;;;19.51;37.28;99663.84;1625555;87;21089;-73
2022/05/28 10:39:13;;;;;;;1.40;0.30;;;;;;;19.64;36.07;99663.91;1650389;86;21065;-71
2022/05/28 10:41:44;;;;;;;0.72;0.20;;;;;;;19.72;35.99;99667.50;1599071;87;21182;-72
2022/05/28 10:44:13;;;;;;;1.20;0.40;;;;;;;19.74;36.07;99667.21;1649976;85;21062;-71
2022/05/28 10:47:03;;;;;;;1.75;0.30;;;;;;;19.70;35.83;99666.09;1602226;87;21056;-72
2022/05/28 10:49:49;;;;;;;2.77;0.20;;;;;;;19.56;36.36;99665.23;1640773;85;21069;-75
2022/05/28 10:52:42;;;;;;;2.92;0.55;;;;;;;19.44;36.97;99656.55;1630916;86;21055;-70
2022/05/28 10:55:32;;;;;;;1.32;0.20;;;;;;;19.36;37.11;99653.78;1615379;87;21142;-74
2022/05/28 10:58:20;;;;;;;1.85;0.30;;;;;;;19.20;37.06;99652.91;1635973;85;21025;-75
2022/05/28 11:01:01;;;;;;;2.15;0.30;;;;;;;19.10;37.89;99659.61;1632841;87;21112;-71
2022/05/28 11:03:48;;;;;;;0.80;0.30;;;;;;;19.09;38.24;99653.12;1659252;84;21022;-72
2022/05/28 11:06:32;;;;;;;0.68;0.10;;;;;;;19.13;38.55;99650.97;1665170;84;21097;-73
2022/05/28 11:09:41;;;;;;;2.15;0.20;;;;;;;19.20;37.90;99652.91;1668782;84;21144;-72
2022/05/28 11:12:31;;;;;;;4.78;0.53;;;;;;;19.23;37.38;99640.75;1642388;84;21047;-72
2022/05/28 11:15:25;;;;;;;2.75;0.30;;;;;;;19.33;36.32;99635.95;1670603;84;20989;-69
2022/05/28 11:18:07;;;;;;;2.30;0.20;;;;;;;19.35;35.97;99641.91;1654168;84;21040;-74
2022/05/28 11:21:07;;;;;;;0.50;0.10;;;;;;;19.37;35.89;99646.51;1671237;84;21092;-70
2022/05/28 11:24:06;;;;;;;1.95;0.20;;;;;;;19.45;36.18;99644.64;1608532;86;21082;-72
2022/05/28 11:26:41;;;;;;;5.05;0.20;;;;;;;19.61;36.34;99649.04;1639666;86;21079;-71
2022/05/28 11:29:42;;;;;;;1.50;0.40;;;;;;;19.80;36.43;99648.05;1627819;86;21033;-76
2022/05/28 11:32:19;;;;;;;0.70;0.10;;;;;;;19.95;36.56;99639.16;1633039;86;21591;-74
2022/05/28 11:35:10;;;;;;;1.95;0.30;;;;;;;20.01;35.60;99644.04;1622083;87;21063;-75
2022/05/28 11:37:45;;;;;;;4.45;0.33;;;;;;;19.93;35.91;99642.67;1614696;89;21053;-71
2022/05/28 11:40:44;;;;;;;1.50;0.20;;;;;;;19.88;35.36;99656.72;1598754;87;21048;-71
2022/05/28 11:43:25;;;;;;;0.40;0.30;;;;;;;19.76;34.89;99647.48;1615600;89;21060;-70
2022/05/28 11:46:23;;;;;;;0.30;0.20;;;;;;;19.64;35.84;99655.25;1615045;87;21070;-72
2022/05/28 11:51:59;;;;;;;3.65;0.10;;;;;;;19.56;35.80;99650.91;1628479;87;21087;-71
2022/05/28 11:54:33;;;;;;;0.50;0.10;;;;;;;19.53;35.50;99648.17;1614333;87;21188;-73
2022/05/28 11:57:04;;;;;;;0.60;0.10;;;;;;;19.49;34.93;99653.84;1677488;84;21037;-71
2022/05/28 11:59:33;;;;;;;0.42;0.30;;;;;;;19.39;34.31;99655.97;1671534;84;21053;-71
2022/05/28 12:02:05;;;;;;;0.40;0.10;;;;;;;19.22;33.29;99656.16;1605110;88;21056;-73
2022/05/28 12:04:36;;;;;;;2.40;0.10;;;;;;;19.14;34.33;99660.71;1614693;87;21068;-71
2022/05/28 12:07:11;;;;;;;1.47;0.30;;;;;;;19.16;34.61;99648.30;1643301;86;21552;-71